KLM681 EHAM-CYVR
Flight info
| Callsign | KLM681 |
|---|---|
| Flight time | N/A |
| Altitude | 34000 |
| Route | ANDIK DCT SUTEB DCT GIBSU DCT FORTY DCT MOCHA DCT PEMOS/M081F340 DCT 65N012W/M082F360 68N022W 70N035W 72N051W 71N067W/N0470F360 DCT 7082N/N0476F380 DCT 67N095W 64N104W DCT YSM J528 YQU DCT HEIRE Q800 ELIDI WHSLR8 |
| Aircraft | A333/H-SADE1E2E3GHIJ3J5M1P2RWXY/LB2D1 |
Departure
| Time | 2026-05-05 10:35 |
|---|---|
| Airport | Amsterdam Airport Schiphol (EHAM) |
Arrival
| Time | N/A |
|---|---|
| Airport | Vancouver International Airport (CYVR) |
| Time | Latitude | Longitude | Altitude | Speed | Heading |
|---|---|---|---|---|---|
| 2026-05-05 09:55 | 52.31229 | 4.76286 | 5 ft | 0 kts | 266° |
| 2026-05-05 10:20 | 52.31230 | 4.76309 | 6 ft | 4 kts | 267° |
| 2026-05-05 10:20 | 52.31231 | 4.76353 | 8 ft | 4 kts | 267° |
| 2026-05-05 10:21 | 52.31233 | 4.76397 | 7 ft | 4 kts | 260° |
| 2026-05-05 10:21 | 52.31234 | 4.76432 | 7 ft | 4 kts | 228° |
| 2026-05-05 10:21 | 52.31241 | 4.76443 | 7 ft | 4 kts | 188° |
| 2026-05-05 10:21 | 52.31265 | 4.76452 | 6 ft | 4 kts | 207° |
| 2026-05-05 10:22 | 52.31288 | 4.76473 | 8 ft | 4 kts | 212° |
| 2026-05-05 10:22 | 52.31311 | 4.76496 | 8 ft | 4 kts | 213° |
| 2026-05-05 10:22 | 52.31334 | 4.76521 | 7 ft | 4 kts | 214° |
| 2026-05-05 10:22 | 52.31355 | 4.76545 | 6 ft | 2 kts | 214° |
| 2026-05-05 10:23 | 52.31345 | 4.76532 | 5 ft | 4 kts | 219° |
| 2026-05-05 10:23 | 52.31340 | 4.76500 | 5 ft | 4 kts | 261° |
| 2026-05-05 10:23 | 52.31343 | 4.76470 | 5 ft | 4 kts | 275° |
| 2026-05-05 10:23 | 52.31351 | 4.76433 | 5 ft | 4 kts | 297° |
| 2026-05-05 10:24 | 52.31371 | 4.76419 | 5 ft | 4 kts | 337° |
| 2026-05-05 10:24 | 52.31379 | 4.76416 | 5 ft | 0 kts | 342° |
| 2026-05-05 10:27 | 52.31421 | 4.76394 | 5 ft | 11 kts | 342° |
| 2026-05-05 10:27 | 52.31494 | 4.76349 | 5 ft | 8 kts | 330° |
| 2026-05-05 10:27 | 52.31525 | 4.76291 | 5 ft | 7 kts | 303° |
| 2026-05-05 10:28 | 52.31537 | 4.76185 | 5 ft | 12 kts | 269° |
| 2026-05-05 10:28 | 52.31532 | 4.76031 | 5 ft | 15 kts | 266° |
| 2026-05-05 10:28 | 52.31525 | 4.75841 | 5 ft | 19 kts | 266° |
| 2026-05-05 10:28 | 52.31517 | 4.75609 | 5 ft | 22 kts | 267° |
| 2026-05-05 10:29 | 52.31510 | 4.75402 | 5 ft | 18 kts | 267° |
| 2026-05-05 10:29 | 52.31503 | 4.75185 | 4 ft | 20 kts | 267° |
| 2026-05-05 10:29 | 52.31496 | 4.74964 | 5 ft | 19 kts | 266° |
| 2026-05-05 10:29 | 52.31488 | 4.74751 | 5 ft | 19 kts | 267° |
| 2026-05-05 10:30 | 52.31481 | 4.74536 | 5 ft | 18 kts | 266° |
| 2026-05-05 10:30 | 52.31475 | 4.74336 | 5 ft | 15 kts | 266° |
| 2026-05-05 10:30 | 52.31444 | 4.74186 | 5 ft | 13 kts | 230° |
| 2026-05-05 10:30 | 52.31356 | 4.74135 | 5 ft | 14 kts | 185° |
| 2026-05-05 10:31 | 52.31251 | 4.74125 | 5 ft | 16 kts | 183° |
| 2026-05-05 10:31 | 52.31135 | 4.74116 | 5 ft | 17 kts | 182° |
| 2026-05-05 10:31 | 52.31010 | 4.74105 | 5 ft | 19 kts | 183° |
| 2026-05-05 10:31 | 52.30877 | 4.74093 | 5 ft | 19 kts | 183° |
| 2026-05-05 10:32 | 52.30739 | 4.74078 | 5 ft | 20 kts | 183° |
| 2026-05-05 10:32 | 52.30607 | 4.74068 | 5 ft | 19 kts | 183° |
| 2026-05-05 10:32 | 52.30516 | 4.74059 | 5 ft | 14 kts | 184° |
| 2026-05-05 10:32 | 52.30430 | 4.74025 | 5 ft | 10 kts | 215° |
| 2026-05-05 10:33 | 52.30408 | 4.73917 | 4 ft | 11 kts | 267° |
| 2026-05-05 10:33 | 52.30412 | 4.73801 | 3 ft | 8 kts | 274° |
| 2026-05-05 10:33 | 52.30435 | 4.73765 | 3 ft | 7 kts | 329° |
| 2026-05-05 10:33 | 52.30467 | 4.73763 | 3 ft | 0 kts | 2° |
| 2026-05-05 10:34 | 52.30478 | 4.73764 | 3 ft | 10 kts | 2° |
| 2026-05-05 10:34 | 52.30804 | 4.73792 | 5 ft | 83 kts | 3° |
| 2026-05-05 10:35 | 52.31289 | 4.73837 | 4 ft | 126 kts | 3° |
| 2026-05-05 10:35 | 52.32350 | 4.73923 | 71 ft | 169 kts | 4° |
| 2026-05-05 10:35 | 52.33530 | 4.74112 | 672 ft | 170 kts | 12° |
| 2026-05-05 10:35 | 52.34682 | 4.74579 | 1414 ft | 172 kts | 18° |
| 2026-05-05 10:36 | 52.35830 | 4.75241 | 1953 ft | 180 kts | 24° |
| 2026-05-05 10:36 | 52.37005 | 4.76114 | 2291 ft | 197 kts | 27° |
| 2026-05-05 10:36 | 52.38213 | 4.77389 | 2528 ft | 216 kts | 40° |
| 2026-05-05 10:36 | 52.39309 | 4.79215 | 2730 ft | 236 kts | 49° |
| 2026-05-05 10:37 | 52.40450 | 4.81269 | 3093 ft | 247 kts | 47° |
| 2026-05-05 10:37 | 52.41643 | 4.83323 | 3594 ft | 252 kts | 45° |
| 2026-05-05 10:37 | 52.42920 | 4.85309 | 4069 ft | 255 kts | 35° |
| 2026-05-05 10:37 | 52.44550 | 4.86437 | 4558 ft | 258 kts | 9° |
| 2026-05-05 10:38 | 52.46357 | 4.86449 | 5051 ft | 261 kts | 355° |
| 2026-05-05 10:38 | 52.48178 | 4.86156 | 5534 ft | 265 kts | 354° |
| 2026-05-05 10:38 | 52.50030 | 4.86296 | 6000 ft | 270 kts | 6° |
| 2026-05-05 10:38 | 52.51922 | 4.86688 | 6480 ft | 275 kts | 7° |
| 2026-05-05 10:39 | 52.53828 | 4.87099 | 6935 ft | 278 kts | 7° |
| 2026-05-05 10:39 | 52.55749 | 4.87514 | 7506 ft | 279 kts | 7° |
| 2026-05-05 10:39 | 52.57676 | 4.87927 | 8046 ft | 281 kts | 6° |
| 2026-05-05 10:39 | 52.59624 | 4.88338 | 8584 ft | 283 kts | 6° |
| 2026-05-05 10:40 | 52.61590 | 4.88751 | 9119 ft | 286 kts | 6° |
| 2026-05-05 10:40 | 52.63572 | 4.89166 | 9650 ft | 289 kts | 6° |
| 2026-05-05 10:40 | 52.65580 | 4.89590 | 10153 ft | 292 kts | 6° |
| 2026-05-05 10:40 | 52.67600 | 4.90016 | 10316 ft | 308 kts | 6° |
| 2026-05-05 10:41 | 52.69780 | 4.90473 | 10457 ft | 324 kts | 6° |
| 2026-05-05 10:41 | 52.72064 | 4.90953 | 10614 ft | 338 kts | 6° |
| 2026-05-05 10:41 | 52.74416 | 4.91453 | 11062 ft | 341 kts | 6° |
| 2026-05-05 10:41 | 52.76781 | 4.91956 | 11533 ft | 344 kts | 6° |
| 2026-05-05 10:42 | 52.81565 | 4.92973 | 12523 ft | 349 kts | 5° |
| 2026-05-05 10:42 | 52.83984 | 4.93489 | 12995 ft | 352 kts | 5° |
| 2026-05-05 10:42 | 52.86388 | 4.94001 | 13504 ft | 354 kts | 5° |
| 2026-05-05 10:43 | 52.88842 | 4.94524 | 13955 ft | 356 kts | 5° |
| 2026-05-05 10:43 | 52.91311 | 4.95052 | 14374 ft | 359 kts | 5° |
| 2026-05-05 10:43 | 52.93795 | 4.95583 | 14796 ft | 362 kts | 5° |
| 2026-05-05 10:43 | 52.96302 | 4.96118 | 15207 ft | 365 kts | 5° |
| 2026-05-05 10:44 | 52.98826 | 4.96656 | 15633 ft | 367 kts | 5° |
| 2026-05-05 10:44 | 53.01370 | 4.97200 | 16047 ft | 369 kts | 5° |
| 2026-05-05 10:44 | 53.03922 | 4.97748 | 16471 ft | 372 kts | 5° |
| 2026-05-05 10:44 | 53.06498 | 4.98301 | 16898 ft | 374 kts | 5° |
| 2026-05-05 10:45 | 53.09088 | 4.98858 | 17311 ft | 376 kts | 5° |
| 2026-05-05 10:45 | 53.11661 | 4.99412 | 17735 ft | 379 kts | 4° |
| 2026-05-05 10:45 | 53.14312 | 4.99985 | 18147 ft | 381 kts | 4° |
| 2026-05-05 10:45 | 53.16960 | 5.00557 | 18518 ft | 384 kts | 4° |
| 2026-05-05 10:46 | 53.19612 | 5.01130 | 18882 ft | 386 kts | 4° |
| 2026-05-05 10:46 | 53.22289 | 5.01709 | 19261 ft | 389 kts | 4° |
| 2026-05-05 10:46 | 53.24978 | 5.02292 | 19637 ft | 391 kts | 4° |
| 2026-05-05 10:46 | 53.27684 | 5.02879 | 20007 ft | 393 kts | 4° |
| 2026-05-05 10:47 | 53.30398 | 5.03467 | 20372 ft | 396 kts | 4° |
| 2026-05-05 10:47 | 53.33149 | 5.04065 | 20741 ft | 398 kts | 4° |
| 2026-05-05 10:47 | 53.35906 | 5.04666 | 21123 ft | 401 kts | 4° |
| 2026-05-05 10:47 | 53.38681 | 5.05272 | 21484 ft | 404 kts | 4° |
| 2026-05-05 10:48 | 53.41471 | 5.05881 | 21855 ft | 406 kts | 4° |
| 2026-05-05 10:48 | 53.44278 | 5.06495 | 22232 ft | 408 kts | 4° |
| 2026-05-05 10:48 | 53.47108 | 5.07115 | 22609 ft | 411 kts | 4° |
| 2026-05-05 10:48 | 53.49958 | 5.07740 | 22983 ft | 413 kts | 4° |
| 2026-05-05 10:49 | 53.52812 | 5.08366 | 23352 ft | 416 kts | 4° |
| 2026-05-05 10:49 | 53.55658 | 5.08992 | 23706 ft | 418 kts | 4° |
| 2026-05-05 10:49 | 53.58546 | 5.09628 | 24044 ft | 420 kts | 4° |
| 2026-05-05 10:49 | 53.61456 | 5.10270 | 24387 ft | 422 kts | 4° |
| 2026-05-05 10:50 | 53.64367 | 5.10913 | 24711 ft | 424 kts | 4° |
| 2026-05-05 10:50 | 53.67299 | 5.11561 | 25048 ft | 425 kts | 4° |
| 2026-05-05 10:50 | 53.70243 | 5.12212 | 25386 ft | 427 kts | 4° |
| 2026-05-05 10:50 | 53.73194 | 5.12867 | 25706 ft | 429 kts | 4° |
| 2026-05-05 10:51 | 53.76156 | 5.13524 | 26042 ft | 431 kts | 4° |
| 2026-05-05 10:51 | 53.79136 | 5.14187 | 26373 ft | 432 kts | 4° |
| 2026-05-05 10:51 | 53.82128 | 5.14853 | 26686 ft | 434 kts | 4° |
| 2026-05-05 10:51 | 53.85126 | 5.15521 | 27009 ft | 436 kts | 5° |
| 2026-05-05 10:52 | 53.88141 | 5.16195 | 27319 ft | 438 kts | 5° |
| 2026-05-05 10:52 | 53.91161 | 5.16870 | 27623 ft | 439 kts | 5° |
| 2026-05-05 10:52 | 53.94205 | 5.17552 | 27927 ft | 441 kts | 5° |
| 2026-05-05 10:52 | 53.97253 | 5.18236 | 28228 ft | 443 kts | 5° |
| 2026-05-05 10:53 | 54.00312 | 5.18923 | 28521 ft | 445 kts | 5° |
| 2026-05-05 10:53 | 54.03390 | 5.19615 | 28800 ft | 447 kts | 5° |
| 2026-05-05 10:53 | 54.06477 | 5.20310 | 29091 ft | 448 kts | 5° |
| 2026-05-05 10:53 | 54.09573 | 5.21007 | 29361 ft | 450 kts | 5° |
| 2026-05-05 10:54 | 54.12649 | 5.21702 | 29646 ft | 452 kts | 6° |
| 2026-05-05 10:54 | 54.15184 | 5.22275 | 29877 ft | 453 kts | 6° |
| 2026-05-05 10:54 | 54.18323 | 5.22986 | 30138 ft | 455 kts | 6° |
| 2026-05-05 10:54 | 54.21469 | 5.23699 | 30384 ft | 457 kts | 6° |
| 2026-05-05 10:55 | 54.24621 | 5.24416 | 30641 ft | 458 kts | 6° |
| 2026-05-05 10:55 | 54.27787 | 5.25137 | 30890 ft | 460 kts | 6° |
| 2026-05-05 10:55 | 54.30969 | 5.25863 | 31131 ft | 462 kts | 5° |
| 2026-05-05 10:55 | 54.34162 | 5.26592 | 31384 ft | 463 kts | 5° |
| 2026-05-05 10:56 | 54.37358 | 5.27323 | 31621 ft | 465 kts | 5° |
| 2026-05-05 10:56 | 54.40576 | 5.28060 | 31861 ft | 466 kts | 5° |
| 2026-05-05 10:56 | 54.43800 | 5.28800 | 32100 ft | 468 kts | 5° |
| 2026-05-05 10:56 | 54.47034 | 5.29543 | 32325 ft | 470 kts | 5° |
| 2026-05-05 10:57 | 54.50283 | 5.30291 | 32533 ft | 471 kts | 5° |
| 2026-05-05 10:57 | 54.53529 | 5.31039 | 32729 ft | 472 kts | 5° |
| 2026-05-05 10:57 | 54.56794 | 5.31793 | 32898 ft | 474 kts | 5° |
| 2026-05-05 10:57 | 54.60061 | 5.32549 | 33058 ft | 475 kts | 5° |
| 2026-05-05 10:58 | 54.63342 | 5.33309 | 33202 ft | 476 kts | 5° |
| 2026-05-05 10:58 | 54.66625 | 5.34071 | 33329 ft | 477 kts | 5° |
| 2026-05-05 10:58 | 54.69913 | 5.34835 | 33453 ft | 478 kts | 5° |
| 2026-05-05 10:58 | 54.73214 | 5.35604 | 33604 ft | 478 kts | 5° |
| 2026-05-05 10:59 | 54.76507 | 5.36372 | 33758 ft | 478 kts | 5° |
| 2026-05-05 10:59 | 54.79802 | 5.37142 | 33918 ft | 477 kts | 5° |
| 2026-05-05 10:59 | 54.83048 | 5.37902 | 34007 ft | 477 kts | 5° |
| 2026-05-05 11:00 | 54.89634 | 5.39446 | 34008 ft | 477 kts | 4° |
| 2026-05-05 11:00 | 54.96215 | 5.40760 | 34013 ft | 473 kts | 356° |
| 2026-05-05 11:00 | 54.99475 | 5.40268 | 34015 ft | 469 kts | 345° |
| 2026-05-05 11:01 | 55.02580 | 5.38688 | 34013 ft | 463 kts | 334° |
| 2026-05-05 11:01 | 55.05408 | 5.36087 | 34012 ft | 456 kts | 322° |
| 2026-05-05 11:01 | 55.08016 | 5.32944 | 34011 ft | 456 kts | 321° |
| 2026-05-05 11:02 | 55.13228 | 5.26639 | 34023 ft | 456 kts | 322° |
| 2026-05-05 11:02 | 55.18463 | 5.20480 | 34031 ft | 456 kts | 322° |
| 2026-05-05 11:03 | 55.23743 | 5.14314 | 34013 ft | 456 kts | 322° |
| 2026-05-05 11:03 | 55.29019 | 5.08137 | 34008 ft | 456 kts | 322° |
| 2026-05-05 11:04 | 55.34288 | 5.01944 | 34005 ft | 455 kts | 322° |
| 2026-05-05 11:04 | 55.39551 | 4.95736 | 34001 ft | 455 kts | 322° |
| 2026-05-05 11:05 | 55.44809 | 4.89515 | 33999 ft | 455 kts | 322° |
| 2026-05-05 11:05 | 55.50055 | 4.83287 | 34001 ft | 455 kts | 321° |
| 2026-05-05 11:06 | 55.55302 | 4.77040 | 34001 ft | 454 kts | 321° |
| 2026-05-05 11:06 | 55.60537 | 4.70785 | 34001 ft | 454 kts | 321° |
| 2026-05-05 11:07 | 55.65292 | 4.65087 | 33999 ft | 454 kts | 321° |
| 2026-05-05 11:07 | 55.70509 | 4.58814 | 34001 ft | 453 kts | 321° |
| 2026-05-05 11:08 | 55.75692 | 4.52563 | 34001 ft | 453 kts | 321° |
| 2026-05-05 11:08 | 55.80900 | 4.46260 | 34001 ft | 453 kts | 321° |
| 2026-05-05 11:09 | 55.86109 | 4.39935 | 33997 ft | 452 kts | 321° |
| 2026-05-05 11:09 | 55.91301 | 4.33611 | 34003 ft | 452 kts | 321° |
| 2026-05-05 11:10 | 55.96478 | 4.27282 | 34000 ft | 451 kts | 321° |
| 2026-05-05 11:10 | 56.01623 | 4.20973 | 34002 ft | 451 kts | 321° |
| 2026-05-05 11:11 | 56.06786 | 4.14621 | 33997 ft | 450 kts | 321° |
| 2026-05-05 11:11 | 56.11934 | 4.08266 | 33992 ft | 450 kts | 321° |
| 2026-05-05 11:12 | 56.17077 | 4.01897 | 33990 ft | 449 kts | 320° |
| 2026-05-05 11:12 | 56.22204 | 3.95527 | 34000 ft | 448 kts | 320° |
| 2026-05-05 11:13 | 56.27320 | 3.89148 | 33992 ft | 447 kts | 320° |
| 2026-05-05 11:13 | 56.32434 | 3.82750 | 33991 ft | 447 kts | 320° |
| 2026-05-05 11:14 | 56.37528 | 3.76356 | 33986 ft | 446 kts | 320° |
| 2026-05-05 11:14 | 56.42621 | 3.69942 | 33981 ft | 446 kts | 320° |
| 2026-05-05 11:15 | 56.47708 | 3.63514 | 33980 ft | 446 kts | 320° |
| 2026-05-05 11:15 | 56.52787 | 3.57075 | 33988 ft | 445 kts | 320° |
| 2026-05-05 11:16 | 56.57859 | 3.50624 | 33977 ft | 445 kts | 320° |
| 2026-05-05 11:16 | 56.62897 | 3.44195 | 33979 ft | 445 kts | 320° |
| 2026-05-05 11:17 | 56.67957 | 3.37715 | 33983 ft | 445 kts | 320° |
| 2026-05-05 11:17 | 56.73015 | 3.31218 | 33992 ft | 445 kts | 320° |
| 2026-05-05 11:18 | 56.77652 | 3.23918 | 33993 ft | 438 kts | 309° |
| 2026-05-05 11:18 | 56.81618 | 3.15539 | 33998 ft | 436 kts | 306° |
| 2026-05-05 11:19 | 56.85567 | 3.07130 | 33995 ft | 436 kts | 306° |
| 2026-05-05 11:19 | 56.89479 | 2.98751 | 33991 ft | 435 kts | 306° |